createdAt,value
2024-03-05T00:00:25.516Z,22.80
2024-03-05T00:02:51.950Z,22.03
2024-03-05T00:05:19.505Z,22.93
2024-03-05T00:07:46.171Z,26.07
2024-03-05T00:10:12.940Z,23.13
2024-03-05T00:12:39.369Z,23.43
2024-03-05T00:15:06.307Z,25.13
2024-03-05T00:17:32.999Z,26.60
2024-03-05T00:19:59.453Z,26.77
2024-03-05T00:22:25.906Z,24.00
2024-03-05T00:24:52.416Z,28.37
2024-03-05T00:27:18.873Z,25.77
2024-03-05T00:29:45.326Z,28.20
2024-03-05T00:32:11.860Z,24.00
2024-03-05T00:34:39.253Z,27.23
2024-03-05T00:37:06.179Z,24.23
2024-03-05T00:39:32.667Z,26.50
2024-03-05T00:41:59.056Z,26.97
2024-03-05T00:44:25.523Z,28.40
2024-03-05T00:46:54.022Z,25.87
2024-03-05T00:49:21.416Z,23.13
2024-03-05T00:51:48.759Z,22.90
2024-03-05T00:54:15.368Z,24.13
2024-03-05T00:56:41.866Z,25.30
2024-03-05T00:59:08.305Z,25.03
2024-03-05T01:01:34.823Z,26.67
2024-03-05T01:04:01.486Z,24.63
2024-03-05T01:06:27.854Z,28.10
2024-03-05T01:08:54.230Z,24.07
2024-03-05T01:11:20.738Z,23.70
2024-03-05T01:13:47.209Z,26.27
2024-03-05T01:16:13.726Z,29.17
2024-03-05T01:18:40.157Z,23.97
2024-03-05T01:21:07.504Z,28.20
2024-03-05T01:23:34.369Z,24.37
2024-03-05T01:26:01.091Z,26.10
2024-03-05T01:28:30.545Z,24.20
2024-03-05T01:30:56.996Z,29.43
2024-03-05T01:33:24.074Z,29.17
2024-03-05T01:35:52.147Z,24.20
2024-03-05T01:38:18.685Z,25.90
2024-03-05T01:40:46.126Z,27.00
2024-03-05T01:43:12.662Z,24.97
2024-03-05T01:45:39.388Z,27.73
2024-03-05T01:48:06.477Z,25.57
2024-03-05T01:50:36.347Z,25.77
2024-03-05T01:53:05.489Z,25.13
2024-03-05T01:55:32.156Z,25.93
2024-03-05T01:57:59.425Z,25.93
2024-03-05T02:00:27.299Z,22.73
2024-03-05T02:02:56.628Z,23.70
2024-03-05T02:05:23.825Z,26.80
2024-03-05T02:07:54.532Z,26.87
2024-03-05T02:10:24.313Z,28.23
2024-03-05T02:12:50.839Z,31.50
2024-03-05T02:15:19.970Z,27.47
2024-03-05T02:17:47.099Z,25.00
2024-03-05T02:20:16.573Z,26.33
2024-03-05T02:22:43.574Z,25.53
2024-03-05T02:25:10.877Z,30.70
2024-03-05T02:27:38.233Z,28.93
2024-03-05T02:30:11.249Z,25.63
2024-03-05T02:32:41.859Z,34.07
2024-03-05T02:35:09.502Z,28.53
2024-03-05T02:37:40.009Z,23.70
2024-03-05T02:40:11.252Z,28.27
2024-03-05T02:42:38.161Z,27.87
2024-03-05T02:45:08.359Z,26.03
2024-03-05T02:47:43.245Z,26.00
2024-03-05T02:50:10.906Z,24.63
2024-03-05T02:52:40.397Z,28.57
2024-03-05T02:55:11.256Z,26.83
2024-03-05T02:57:45.449Z,30.30
2024-03-05T03:00:21.550Z,28.47
2024-03-05T03:02:50.487Z,28.03
2024-03-05T03:05:17.897Z,32.63
2024-03-05T03:07:45.009Z,30.50
2024-03-05T03:10:14.829Z,28.63
2024-03-05T03:12:41.990Z,27.63
2024-03-05T03:15:09.504Z,31.27
2024-03-05T03:17:39.283Z,27.33
2024-03-05T03:20:08.815Z,24.93
2024-03-05T03:22:36.383Z,27.73
2024-03-05T03:25:03.131Z,24.80
2024-03-05T03:27:31.056Z,27.37
2024-03-05T03:29:59.096Z,29.27
2024-03-05T03:32:25.648Z,33.57
2024-03-05T03:34:52.775Z,26.07
2024-03-05T03:37:19.343Z,27.87
2024-03-05T03:39:47.878Z,25.73
2024-03-05T03:42:14.384Z,29.07
2024-03-05T03:44:40.980Z,28.47
2024-03-05T03:47:07.986Z,26.20
2024-03-05T03:49:34.656Z,27.83
2024-03-05T03:52:01.059Z,28.23
2024-03-05T03:54:27.512Z,24.40
2024-03-05T03:56:53.959Z,26.27
2024-03-05T03:59:21.269Z,26.73
2024-03-05T04:01:49.059Z,25.00
2024-03-05T04:04:15.508Z,27.60
2024-03-05T04:06:43.166Z,26.03
2024-03-05T04:09:09.651Z,29.43
2024-03-05T04:11:39.665Z,26.00
2024-03-05T04:14:06.343Z,25.07
2024-03-05T04:16:33.001Z,27.23
2024-03-05T04:18:59.867Z,23.90
2024-03-05T04:21:26.972Z,23.07
2024-03-05T04:23:53.687Z,27.90
2024-03-05T04:26:27.767Z,28.17
2024-03-05T04:28:56.132Z,23.17
2024-03-05T04:34:00.327Z,28.37
2024-03-05T04:36:26.725Z,27.27
2024-03-05T04:38:56.486Z,25.70
2024-03-05T04:41:23.399Z,26.03
2024-03-05T04:43:49.818Z,22.10
2024-03-05T04:46:16.279Z,27.60
2024-03-05T04:48:42.667Z,28.80
2024-03-05T04:51:13.570Z,26.00
2024-03-05T04:53:39.984Z,23.23
2024-03-05T04:56:07.713Z,24.10
2024-03-05T04:58:34.568Z,25.77
2024-03-05T05:01:00.992Z,28.93
2024-03-05T05:03:27.676Z,25.60
2024-03-05T05:05:58.666Z,24.40
2024-03-05T05:08:25.229Z,23.57
2024-03-05T05:10:51.742Z,27.50
2024-03-05T05:13:18.693Z,27.70
2024-03-05T05:15:45.250Z,28.47
2024-03-05T05:18:11.696Z,26.13
2024-03-05T05:20:38.142Z,29.17
2024-03-05T05:23:05.051Z,26.80
2024-03-05T05:25:31.512Z,32.70
2024-03-05T05:27:57.936Z,26.40
2024-03-05T05:30:24.864Z,30.90
2024-03-05T05:32:51.626Z,30.67
2024-03-05T05:35:18.531Z,27.27
2024-03-05T05:37:45.861Z,26.33
2024-03-05T05:40:14.948Z,26.93
2024-03-05T05:42:42.438Z,23.57
2024-03-05T05:45:10.339Z,28.10
2024-03-05T05:47:39.718Z,30.37
2024-03-05T05:50:18.501Z,28.23
2024-03-05T05:52:51.241Z,24.13
2024-03-05T05:55:20.643Z,29.13
2024-03-05T05:57:48.767Z,27.30
2024-03-05T06:00:36.223Z,24.27
2024-03-05T06:03:09.014Z,29.30
2024-03-05T06:05:37.618Z,26.27
2024-03-05T06:08:05.367Z,24.00
2024-03-05T06:10:31.992Z,23.27
2024-03-05T06:12:59.271Z,27.07
2024-03-05T06:15:25.726Z,22.63
2024-03-05T06:17:52.969Z,25.30
2024-03-05T06:20:19.818Z,29.17
2024-03-05T06:22:46.926Z,23.03
2024-03-05T06:25:17.752Z,24.60
2024-03-05T06:27:44.518Z,22.87
2024-03-05T06:30:19.294Z,22.27
2024-03-05T06:32:48.656Z,23.77
2024-03-05T06:35:17.083Z,21.23
2024-03-05T06:37:45.142Z,19.53
2024-03-05T06:40:13.315Z,19.70
2024-03-05T06:42:42.306Z,27.70
2024-03-05T06:45:16.385Z,20.23
2024-03-05T06:48:07.067Z,21.33
2024-03-05T06:50:39.262Z,24.43
2024-03-05T06:53:25.285Z,23.83
2024-03-05T06:56:10.635Z,28.10
2024-03-05T06:58:39.972Z,22.87
2024-03-05T07:01:09.397Z,24.77
2024-03-05T07:03:36.911Z,20.97
2024-03-05T07:06:08.308Z,25.53
2024-03-05T07:08:36.399Z,19.47
2024-03-05T07:11:06.791Z,20.00
2024-03-05T07:13:35.049Z,22.77
2024-03-05T07:16:03.432Z,19.27
2024-03-05T07:18:29.900Z,22.80
2024-03-05T07:20:56.332Z,20.10
2024-03-05T07:23:22.750Z,19.27
2024-03-05T07:25:49.323Z,19.90
2024-03-05T07:28:17.013Z,20.43
2024-03-05T07:30:43.691Z,19.33
2024-03-05T07:33:10.649Z,19.73
2024-03-05T07:35:37.242Z,20.33
2024-03-05T07:38:03.903Z,18.53
2024-03-05T07:40:30.852Z,18.93
2024-03-05T07:42:57.312Z,17.37
2024-03-05T07:45:24.283Z,19.70
2024-03-05T07:47:51.570Z,19.60
2024-03-05T07:50:18.268Z,22.17
2024-03-05T07:52:46.401Z,19.97
2024-03-05T07:55:15.449Z,23.43
2024-03-05T07:57:46.541Z,21.30
2024-03-05T08:00:14.832Z,19.57
2024-03-05T08:02:43.675Z,18.80
2024-03-05T08:05:10.562Z,20.57
2024-03-05T08:07:37.682Z,17.47
2024-03-05T08:10:06.375Z,20.83
2024-03-05T08:12:32.727Z,20.00
2024-03-05T08:14:59.185Z,23.13
2024-03-05T08:17:25.586Z,19.90
2024-03-05T08:19:52.852Z,22.07
2024-03-05T08:22:29.241Z,21.33
2024-03-05T08:24:55.961Z,16.70
2024-03-05T08:27:22.865Z,17.10
2024-03-05T08:29:51.065Z,17.43
2024-03-05T08:32:18.611Z,18.10
2024-03-05T08:34:45.137Z,15.13
2024-03-05T08:37:12.909Z,17.40
2024-03-05T08:39:42.247Z,14.23
2024-03-05T08:42:08.706Z,14.97
2024-03-05T08:44:35.049Z,14.37
2024-03-05T08:47:01.445Z,14.47
2024-03-05T08:49:27.888Z,12.90
2024-03-05T08:51:54.414Z,14.90
2024-03-05T08:54:22.016Z,16.30
2024-03-05T08:56:48.621Z,12.77
2024-03-05T08:59:15.542Z,14.43
2024-03-05T09:01:42.086Z,15.10
2024-03-05T09:04:08.558Z,12.50
2024-03-05T09:06:34.968Z,16.80
2024-03-05T09:09:01.470Z,14.93
2024-03-05T09:11:28.973Z,13.53
2024-03-05T09:13:55.461Z,15.13
2024-03-05T09:16:21.863Z,12.53
2024-03-05T09:18:48.335Z,16.27
2024-03-05T09:21:15.434Z,14.57
2024-03-05T09:23:41.917Z,16.20
2024-03-05T09:26:08.801Z,16.23
2024-03-05T09:28:36.319Z,13.27
2024-03-05T09:31:02.834Z,16.20
2024-03-05T09:33:30.461Z,14.53
2024-03-05T09:35:57.223Z,14.00
2024-03-05T09:38:23.648Z,12.90
2024-03-05T09:40:52.266Z,14.53
2024-03-05T09:43:25.280Z,15.20
2024-03-05T09:45:52.664Z,14.97
2024-03-05T09:48:20.861Z,15.90
2024-03-05T09:50:49.644Z,16.13
2024-03-05T09:53:16.937Z,14.77
2024-03-05T09:55:44.888Z,18.70
2024-03-05T09:58:12.332Z,12.47
2024-03-05T10:00:39.248Z,15.40
2024-03-05T10:03:09.968Z,18.20
2024-03-05T10:05:41.430Z,16.37
2024-03-05T10:08:07.967Z,13.57
2024-03-05T10:10:34.609Z,12.80
2024-03-05T10:13:02.323Z,12.33
2024-03-05T10:15:28.767Z,13.80
2024-03-05T10:17:56.529Z,14.47
2024-03-05T10:20:33.931Z,14.50
2024-03-05T10:23:02.854Z,13.47
2024-03-05T10:25:30.899Z,15.67
2024-03-05T10:27:58.195Z,12.83
2024-03-05T10:30:28.691Z,14.63
2024-03-05T10:32:58.772Z,18.43
2024-03-05T10:35:25.216Z,14.97
2024-03-05T10:38:02.088Z,16.23
2024-03-05T10:40:39.037Z,13.20
2024-03-05T10:43:08.851Z,11.77
2024-03-05T10:45:42.359Z,12.53
2024-03-05T10:48:11.657Z,17.73
2024-03-05T10:50:41.415Z,11.37
2024-03-05T10:53:08.842Z,14.27
2024-03-05T10:55:37.753Z,14.30
2024-03-05T10:58:14.882Z,11.57
2024-03-05T11:00:44.883Z,12.80
2024-03-05T11:03:14.161Z,11.27
2024-03-05T11:05:49.001Z,8.43
2024-03-05T11:08:19.233Z,10.97
2024-03-05T11:10:56.232Z,13.83
2024-03-05T11:13:23.187Z,9.47
2024-03-05T11:15:50.493Z,13.43
2024-03-05T11:18:30.176Z,12.87
2024-03-05T11:20:57.094Z,9.93
2024-03-05T11:23:27.940Z,10.30
2024-03-05T11:26:01.958Z,11.70
2024-03-05T11:28:28.554Z,10.77
2024-03-05T11:31:21.486Z,9.73
2024-03-05T11:33:58.598Z,11.77
2024-03-05T11:36:25.477Z,12.03
2024-03-05T11:38:57.077Z,9.63
2024-03-05T11:41:24.922Z,10.53
2024-03-05T11:43:51.401Z,8.70
2024-03-05T11:46:48.483Z,12.13
2024-03-05T11:49:16.831Z,10.90
2024-03-05T11:51:45.560Z,9.23
2024-03-05T11:54:19.971Z,10.73
2024-03-05T11:56:57.339Z,11.37
2024-03-05T11:59:35.507Z,10.80
2024-03-05T12:02:02.347Z,10.83
2024-03-05T12:04:28.950Z,10.57
2024-03-05T12:07:08.125Z,8.47
2024-03-05T12:09:39.181Z,8.97
2024-03-05T12:12:14.838Z,9.80
2024-03-05T12:14:56.902Z,9.37
2024-03-05T12:17:25.381Z,9.20
2024-03-05T12:20:05.881Z,7.37
2024-03-05T12:22:32.479Z,7.70
2024-03-05T12:24:59.354Z,8.73
2024-03-05T12:27:26.148Z,8.47
2024-03-05T12:29:53.462Z,9.33
2024-03-05T12:32:20.335Z,7.23
2024-03-05T12:34:50.720Z,10.33
2024-03-05T12:37:20.293Z,10.90
2024-03-05T12:39:46.916Z,8.70
2024-03-05T12:42:21.947Z,8.13
2024-03-05T12:44:48.755Z,10.37
2024-03-05T12:47:19.732Z,8.27
2024-03-05T12:49:49.316Z,9.33
2024-03-05T12:52:20.991Z,9.70
2024-03-05T12:54:58.003Z,7.87
2024-03-05T12:57:25.988Z,8.47
2024-03-05T12:59:52.422Z,9.33
2024-03-05T13:02:19.215Z,9.10
2024-03-05T13:04:46.498Z,8.43
2024-03-05T13:07:13.184Z,8.97
2024-03-05T13:09:39.538Z,9.90
2024-03-05T13:12:06.469Z,9.70
2024-03-05T13:14:33.051Z,8.63
2024-03-05T13:17:00.037Z,7.53
2024-03-05T13:19:26.495Z,7.60
2024-03-05T13:21:53.104Z,8.87
2024-03-05T13:24:19.470Z,7.83
2024-03-05T13:26:49.452Z,8.33
2024-03-05T13:29:16.026Z,7.63
2024-03-05T13:31:42.683Z,7.10
2024-03-05T13:34:10.440Z,7.10
2024-03-05T13:36:40.515Z,7.57
2024-03-05T13:39:09.973Z,7.57
2024-03-05T13:41:37.611Z,9.77
2024-03-05T13:44:05.320Z,8.17
2024-03-05T13:46:32.342Z,8.17
2024-03-05T13:48:59.567Z,7.93
2024-03-05T13:51:27.618Z,7.40
2024-03-05T13:53:59.232Z,7.70
2024-03-05T13:56:29.947Z,7.77
2024-03-05T13:58:58.983Z,10.73
2024-03-05T14:01:25.484Z,6.90
2024-03-05T14:03:55.264Z,6.47
2024-03-05T14:06:22.214Z,7.33
2024-03-05T14:08:49.398Z,7.77
2024-03-05T14:11:16.144Z,7.50
2024-03-05T14:13:45.188Z,7.50
2024-03-05T14:16:14.829Z,8.37
2024-03-05T14:18:42.471Z,7.23
2024-03-05T14:21:08.861Z,8.63
2024-03-05T14:23:35.717Z,10.50
2024-03-05T14:26:02.231Z,9.47
2024-03-05T14:28:31.428Z,7.70
2024-03-05T14:30:57.819Z,8.10
2024-03-05T14:33:24.148Z,9.10
2024-03-05T14:35:51.111Z,6.90
2024-03-05T14:38:17.945Z,7.83
2024-03-05T14:40:44.528Z,6.67
2024-03-05T14:43:11.176Z,8.67
2024-03-05T14:45:37.531Z,8.00
2024-03-05T14:48:04.469Z,8.27
2024-03-05T14:50:31.120Z,7.10
2024-03-05T14:52:57.615Z,6.77
2024-03-05T14:55:26.501Z,8.73
2024-03-05T14:57:54.567Z,7.73
2024-03-05T15:00:24.387Z,9.67
2024-03-05T15:02:51.954Z,12.37
2024-03-05T15:05:19.919Z,10.03
2024-03-05T15:07:46.893Z,9.87
2024-03-05T15:10:15.783Z,7.77
2024-03-05T15:12:51.030Z,8.87
2024-03-05T15:15:18.952Z,9.50
2024-03-05T15:17:46.836Z,9.57
2024-03-05T15:20:16.560Z,12.07
2024-03-05T15:22:44.900Z,9.40
2024-03-05T15:25:12.998Z,7.60
2024-03-05T15:27:45.598Z,8.57
2024-03-05T15:30:14.437Z,10.00
2024-03-05T15:32:48.595Z,8.43
2024-03-05T15:35:16.748Z,11.67
2024-03-05T15:37:44.564Z,9.00
2024-03-05T15:40:21.740Z,8.30
2024-03-05T15:42:50.700Z,9.83
2024-03-05T15:45:19.279Z,10.83
2024-03-05T15:47:47.132Z,9.13
2024-03-05T15:50:24.771Z,11.07
2024-03-05T15:52:58.304Z,12.90
2024-03-05T15:55:26.320Z,8.37
2024-03-05T15:57:59.080Z,9.50
2024-03-05T16:00:29.858Z,11.40
2024-03-05T16:03:00.240Z,14.17
2024-03-05T16:05:39.424Z,11.17
2024-03-05T16:08:15.752Z,9.40
2024-03-05T16:10:48.354Z,11.13
2024-03-05T16:13:15.726Z,12.07
2024-03-05T16:15:45.458Z,12.73
2024-03-05T16:18:12.569Z,11.10
2024-03-05T16:20:40.497Z,11.00
2024-03-05T16:23:10.581Z,10.83
2024-03-05T16:25:40.444Z,10.87
2024-03-05T16:28:07.615Z,10.83
2024-03-05T16:30:34.305Z,10.50
2024-03-05T16:33:01.083Z,14.90
2024-03-05T16:35:28.446Z,10.27
2024-03-05T16:37:55.709Z,10.83
2024-03-05T16:40:23.591Z,13.33
2024-03-05T16:42:53.291Z,10.87
2024-03-05T16:45:29.035Z,10.80
2024-03-05T16:47:57.737Z,11.27
2024-03-05T16:50:28.006Z,11.27
2024-03-05T16:52:57.509Z,12.20
2024-03-05T16:55:24.748Z,16.37
2024-03-05T16:57:54.026Z,11.50
2024-03-05T17:00:28.547Z,10.13
2024-03-05T17:02:56.850Z,11.00
2024-03-05T17:05:24.830Z,11.37
2024-03-05T17:07:55.705Z,10.23
2024-03-05T17:10:27.940Z,9.60
2024-03-05T17:12:56.835Z,10.33
2024-03-05T17:15:32.765Z,13.50
2024-03-05T17:18:04.900Z,11.47
2024-03-05T17:20:34.837Z,9.40
2024-03-05T17:23:04.242Z,10.00
2024-03-05T17:25:39.610Z,11.37
2024-03-05T17:28:09.720Z,10.47
2024-03-05T17:30:39.076Z,11.40
2024-03-05T17:33:12.692Z,11.90
2024-03-05T17:35:41.611Z,12.07
2024-03-05T17:38:10.735Z,10.83
2024-03-05T17:40:37.304Z,10.63
2024-03-05T17:43:05.121Z,13.43
2024-03-05T17:45:32.674Z,11.70
2024-03-05T17:48:02.225Z,12.97
2024-03-05T17:50:28.967Z,12.40
2024-03-05T17:52:55.639Z,12.20
2024-03-05T17:55:22.171Z,13.30
2024-03-05T17:57:52.073Z,10.87
2024-03-05T18:00:28.625Z,11.13
2024-03-05T18:02:56.858Z,13.17
2024-03-05T18:05:27.877Z,11.33
2024-03-05T18:07:55.128Z,13.20
2024-03-05T18:10:24.158Z,11.20
2024-03-05T18:12:51.926Z,11.70
2024-03-05T18:15:20.924Z,16.30
2024-03-05T18:17:49.793Z,14.97
2024-03-05T18:20:20.133Z,16.77
2024-03-05T18:22:47.413Z,14.30
2024-03-05T18:25:18.205Z,13.77
2024-03-05T18:27:47.854Z,12.00
2024-03-05T18:30:19.732Z,16.33
2024-03-05T18:32:48.215Z,16.63
2024-03-05T18:35:17.656Z,12.63
2024-03-05T18:37:44.638Z,15.80
2024-03-05T18:40:14.623Z,15.10
2024-03-05T18:42:46.670Z,14.33
2024-03-05T18:45:16.736Z,14.83
2024-03-05T18:47:54.483Z,15.80
2024-03-05T18:50:28.955Z,13.63
2024-03-05T18:52:58.238Z,18.57
2024-03-05T18:55:29.817Z,18.20
2024-03-05T18:57:57.296Z,16.50
2024-03-05T19:00:24.459Z,17.73
2024-03-05T19:02:51.842Z,15.00
2024-03-05T19:05:20.097Z,16.37
2024-03-05T19:07:48.298Z,18.33
2024-03-05T19:10:17.137Z,16.57
2024-03-05T19:12:44.485Z,19.57
2024-03-05T19:15:16.744Z,16.93
2024-03-05T19:17:43.843Z,16.60
2024-03-05T19:20:12.095Z,17.67
2024-03-05T19:22:39.939Z,20.07
2024-03-05T19:25:11.608Z,17.53
2024-03-05T19:27:42.685Z,18.53
2024-03-05T19:30:12.423Z,17.43
2024-03-05T19:32:43.244Z,19.43
2024-03-05T19:35:11.815Z,17.47
2024-03-05T19:37:45.903Z,15.50
2024-03-05T19:40:16.817Z,18.10
2024-03-05T19:42:45.724Z,15.83
2024-03-05T19:45:13.213Z,20.53
2024-03-05T19:47:39.776Z,15.13
2024-03-05T19:50:07.033Z,17.37
2024-03-05T19:52:34.545Z,16.27
2024-03-05T19:55:01.053Z,15.33
2024-03-05T19:57:28.212Z,20.63
2024-03-05T19:59:56.906Z,17.00
2024-03-05T20:02:24.562Z,17.07
2024-03-05T20:04:51.177Z,17.80
2024-03-05T20:07:20.983Z,18.87
2024-03-05T20:09:47.333Z,19.50
2024-03-05T20:12:13.923Z,18.27
2024-03-05T20:14:40.571Z,18.57
2024-03-05T20:17:08.569Z,16.80
2024-03-05T20:19:40.261Z,17.57
2024-03-05T20:22:08.574Z,18.70
2024-03-05T20:24:36.190Z,16.63
2024-03-05T20:27:10.153Z,20.93
2024-03-05T20:29:41.554Z,18.13
2024-03-05T20:32:08.216Z,15.77
2024-03-05T20:34:34.952Z,18.80
2024-03-05T20:37:02.270Z,18.90
2024-03-05T20:39:28.709Z,21.40
2024-03-05T20:41:55.185Z,18.33
2024-03-05T20:44:22.088Z,17.87
2024-03-05T20:46:48.563Z,21.50
2024-03-05T20:49:16.091Z,16.93
2024-03-05T20:51:42.475Z,17.90
2024-03-05T20:54:09.064Z,19.33
2024-03-05T20:56:35.458Z,19.20
2024-03-05T20:59:01.931Z,17.63
2024-03-05T21:01:30.452Z,17.97
2024-03-05T21:03:56.932Z,19.07
2024-03-05T21:06:23.292Z,19.97
2024-03-05T21:08:49.709Z,17.93
2024-03-05T21:11:16.445Z,19.30
2024-03-05T21:13:43.540Z,18.77
2024-03-05T21:16:10.940Z,16.93
2024-03-05T21:18:40.560Z,18.13
2024-03-05T21:21:07.971Z,19.57
2024-03-05T21:23:35.331Z,17.77
2024-03-05T21:26:13.538Z,20.53
2024-03-05T21:28:49.514Z,17.13
2024-03-05T21:31:18.206Z,16.97
2024-03-05T21:33:44.789Z,16.13
2024-03-05T21:36:11.243Z,17.07
2024-03-05T21:38:37.809Z,17.30
2024-03-05T21:41:04.802Z,17.83
2024-03-05T21:43:31.259Z,19.13
2024-03-05T21:45:57.979Z,16.90
2024-03-05T21:48:24.328Z,17.67
2024-03-05T21:50:55.049Z,17.17
2024-03-05T21:53:23.765Z,20.73
2024-03-05T21:55:50.182Z,18.50
2024-03-05T21:58:16.549Z,17.53
2024-03-05T22:00:43.083Z,16.27
2024-03-05T22:03:09.552Z,16.47
2024-03-05T22:05:35.924Z,18.57
2024-03-05T22:08:02.466Z,21.50
2024-03-05T22:10:29.531Z,15.97
2024-03-05T22:12:56.386Z,16.60
2024-03-05T22:15:23.286Z,20.07
2024-03-05T22:17:49.726Z,14.63
2024-03-05T22:20:16.701Z,17.53
2024-03-05T22:22:43.208Z,17.70
2024-03-05T22:25:09.804Z,19.47
2024-03-05T22:27:36.486Z,19.63
2024-03-05T22:30:03.955Z,18.83
2024-03-05T22:32:30.406Z,23.03
2024-03-05T22:34:59.003Z,18.17
2024-03-05T22:37:25.640Z,20.57
2024-03-05T22:39:52.071Z,19.43
2024-03-05T22:42:18.550Z,18.63
2024-03-05T22:44:45.002Z,19.30
2024-03-05T22:47:11.477Z,18.20
2024-03-05T22:49:38.463Z,19.23
2024-03-05T22:52:05.343Z,20.40
2024-03-05T22:54:31.764Z,24.50
2024-03-05T22:56:58.192Z,23.30
2024-03-05T22:59:24.669Z,24.70
2024-03-05T23:01:51.131Z,24.03
2024-03-05T23:04:18.126Z,27.33
2024-03-05T23:06:44.556Z,19.07
2024-03-05T23:09:13.325Z,22.47
2024-03-05T23:11:42.531Z,22.70
2024-03-05T23:14:10.534Z,21.50
2024-03-05T23:16:37.821Z,22.63
2024-03-05T23:19:07.184Z,22.13
2024-03-05T23:21:33.689Z,24.40
2024-03-05T23:24:00.773Z,22.70
2024-03-05T23:26:28.045Z,21.13
2024-03-05T23:28:54.819Z,19.93
2024-03-05T23:31:21.316Z,20.27
2024-03-05T23:33:47.725Z,21.13
2024-03-05T23:36:14.086Z,22.53
2024-03-05T23:38:40.836Z,20.10
2024-03-05T23:41:16.703Z,20.13
2024-03-05T23:43:50.738Z,19.73
2024-03-05T23:46:17.307Z,20.13
2024-03-05T23:48:43.672Z,19.33
2024-03-05T23:51:12.358Z,18.77
2024-03-05T23:53:39.943Z,18.00
2024-03-05T23:56:07.399Z,18.90
2024-03-05T23:58:33.825Z,17.17
